createdAt,value
2023-01-02T00:00:48.156Z,1005.55
2023-01-02T00:01:48.076Z,1005.56
2023-01-02T00:02:48.182Z,1005.53
2023-01-02T00:03:48.131Z,1005.50
2023-01-02T00:04:48.019Z,1005.46
2023-01-02T00:05:48.057Z,1005.51
2023-01-02T00:06:48.003Z,1005.52
2023-01-02T00:07:47.979Z,1005.60
2023-01-02T00:08:47.959Z,1005.60
2023-01-02T00:09:47.945Z,1005.58
2023-01-02T00:10:47.958Z,1005.55
2023-01-02T00:11:47.922Z,1005.54
2023-01-02T00:12:47.950Z,1005.48
2023-01-02T00:13:47.924Z,1005.48
2023-01-02T00:14:47.911Z,1005.43
2023-01-02T00:15:47.938Z,1005.40
2023-01-02T00:16:47.888Z,1005.37
2023-01-02T00:17:48.000Z,1005.41
2023-01-02T00:18:47.854Z,1005.43
2023-01-02T00:19:47.863Z,1005.52
2023-01-02T00:20:47.873Z,1005.54
2023-01-02T00:21:47.836Z,1005.47
2023-01-02T00:22:47.811Z,1005.46
2023-01-02T00:23:47.788Z,1005.47
2023-01-02T00:24:47.777Z,1005.40
2023-01-02T00:25:47.802Z,1005.42
2023-01-02T00:26:47.791Z,1005.38
2023-01-02T00:27:47.764Z,1005.41
2023-01-02T00:28:47.748Z,1005.43
2023-01-02T00:29:47.734Z,1005.39
2023-01-02T00:30:47.719Z,1005.41
2023-01-02T00:31:47.776Z,1005.38
2023-01-02T00:32:47.704Z,1005.37
2023-01-02T00:33:47.698Z,1005.28
2023-01-02T00:34:47.671Z,1005.39
2023-01-02T00:35:47.697Z,1005.40
2023-01-02T00:36:47.649Z,1005.37
2023-01-02T00:37:47.630Z,1005.32
2023-01-02T00:38:47.644Z,1005.40
2023-01-02T00:39:47.623Z,1005.41
2023-01-02T00:40:47.619Z,1005.39
2023-01-02T00:41:47.592Z,1005.31
2023-01-02T00:42:47.586Z,1005.34
2023-01-02T00:43:47.582Z,1005.36
2023-01-02T00:44:47.558Z,1005.23
2023-01-02T00:45:47.560Z,1005.23
2023-01-02T00:46:47.563Z,1005.28
2023-01-02T00:47:47.536Z,1005.38
2023-01-02T00:48:47.503Z,1005.37
2023-01-02T00:49:47.532Z,1005.30
2023-01-02T00:50:47.499Z,1005.26
2023-01-02T00:51:47.491Z,1005.28
2023-01-02T00:52:47.465Z,1005.22
2023-01-02T00:53:47.453Z,1005.25
2023-01-02T00:54:47.468Z,1005.13
2023-01-02T00:55:47.487Z,1005.16
2023-01-02T00:56:47.448Z,1005.09
2023-01-02T00:57:47.413Z,1005.11
2023-01-02T00:58:47.406Z,1005.10
2023-01-02T00:59:47.417Z,1005.11
2023-01-02T01:00:47.436Z,1005.07
2023-01-02T01:01:47.723Z,1005.11
2023-01-02T01:02:47.521Z,1005.15
2023-01-02T01:03:47.340Z,1005.14
2023-01-02T01:04:47.317Z,1005.17
2023-01-02T01:05:47.342Z,1005.17
2023-01-02T01:06:47.303Z,1005.13
2023-01-02T01:07:47.294Z,1005.09
2023-01-02T01:08:47.316Z,1005.20
2023-01-02T01:09:47.292Z,1005.17
2023-01-02T01:10:47.263Z,1005.20
2023-01-02T01:11:47.254Z,1005.18
2023-01-02T01:12:47.232Z,1005.22
2023-01-02T01:13:47.234Z,1005.19
2023-01-02T01:14:47.230Z,1005.19
2023-01-02T01:15:47.226Z,1005.09
2023-01-02T01:16:47.190Z,1005.16
2023-01-02T01:17:47.172Z,1005.13
2023-01-02T01:18:47.164Z,1005.06
2023-01-02T01:19:47.174Z,1005.08
2023-01-02T01:20:47.152Z,1005.07
2023-01-02T01:21:47.145Z,1005.07
2023-01-02T01:22:47.123Z,1005.07
2023-01-02T01:23:47.106Z,1005.05
2023-01-02T01:24:47.138Z,1005.05
2023-01-02T01:25:47.108Z,1005.08
2023-01-02T01:26:47.070Z,1005.14
2023-01-02T01:27:47.052Z,1005.12
2023-01-02T01:28:47.075Z,1005.18
2023-01-02T01:29:47.030Z,1005.17
2023-01-02T01:30:47.044Z,1005.23
2023-01-02T01:31:47.157Z,1005.25
2023-01-02T01:32:47.016Z,1005.25
2023-01-02T01:33:47.023Z,1005.29
2023-01-02T01:34:46.983Z,1005.31
2023-01-02T01:35:47.465Z,1005.30
2023-01-02T01:36:46.968Z,1005.26
2023-01-02T01:37:46.967Z,1005.26
2023-01-02T01:38:46.928Z,1005.13
2023-01-02T01:39:46.937Z,1005.32
2023-01-02T01:40:46.917Z,1005.25
2023-01-02T01:41:46.925Z,1005.18
2023-01-02T01:42:50.166Z,1005.30
2023-01-02T01:43:46.902Z,1005.27
2023-01-02T01:44:46.891Z,1005.31
2023-01-02T01:45:46.933Z,1005.26
2023-01-02T01:46:46.853Z,1005.25
2023-01-02T01:47:46.836Z,1005.26
2023-01-02T01:48:46.815Z,1005.19
2023-01-02T01:49:46.836Z,1005.25
2023-01-02T01:50:46.812Z,1005.21
2023-01-02T01:51:46.827Z,1005.31
2023-01-02T01:52:46.784Z,1005.28
2023-01-02T01:53:46.801Z,1005.34
2023-01-02T01:54:46.749Z,1005.30
2023-01-02T01:55:46.750Z,1005.30
2023-01-02T01:56:46.737Z,1005.30
2023-01-02T01:57:46.740Z,1005.40
2023-01-02T01:58:46.702Z,1005.36
2023-01-02T01:59:46.699Z,1005.13
2023-01-02T02:00:46.740Z,1005.17
2023-01-02T02:01:46.809Z,1005.24
2023-01-02T02:02:46.800Z,1005.23
2023-01-02T02:03:46.664Z,1005.29
2023-01-02T02:04:46.671Z,1005.28
2023-01-02T02:05:46.638Z,1005.23
2023-01-02T02:06:46.619Z,1005.29
2023-01-02T02:07:46.606Z,1005.18
2023-01-02T02:08:46.647Z,1005.22
2023-01-02T02:09:46.710Z,1005.21
2023-01-02T02:10:46.577Z,1005.21
2023-01-02T02:11:46.558Z,1005.26
2023-01-02T02:12:46.542Z,1005.26
2023-01-02T02:13:46.527Z,1005.30
2023-01-02T02:14:46.527Z,1005.23
2023-01-02T02:15:46.530Z,1005.21
2023-01-02T02:16:46.518Z,1005.17
2023-01-02T02:17:46.499Z,1005.21
2023-01-02T02:18:46.491Z,1005.24
2023-01-02T02:19:46.476Z,1005.23
2023-01-02T02:20:46.446Z,1005.27
2023-01-02T02:21:46.462Z,1005.36
2023-01-02T02:22:46.445Z,1005.42
2023-01-02T02:23:46.433Z,1005.41
2023-01-02T02:24:46.410Z,1005.36
2023-01-02T02:25:46.429Z,1005.22
2023-01-02T02:26:46.377Z,1005.20
2023-01-02T02:27:46.399Z,1005.27
2023-01-02T02:28:46.396Z,1005.41
2023-01-02T02:29:46.363Z,1005.32
2023-01-02T02:30:46.336Z,1005.17
2023-01-02T02:31:46.383Z,1005.15
2023-01-02T02:32:46.316Z,1005.20
2023-01-02T02:33:46.300Z,1005.29
2023-01-02T02:34:46.323Z,1005.34
2023-01-02T02:35:46.281Z,1005.22
2023-01-02T02:36:46.262Z,1005.23
2023-01-02T02:37:46.261Z,1005.14
2023-01-02T02:38:46.262Z,1005.24
2023-01-02T02:39:46.235Z,1005.24
2023-01-02T02:40:46.262Z,1005.25
2023-01-02T02:41:46.237Z,1005.18
2023-01-02T02:42:46.214Z,1005.08
2023-01-02T02:43:46.208Z,1005.03
2023-01-02T02:44:46.203Z,1005.03
2023-01-02T02:45:46.239Z,1005.07
2023-01-02T02:46:46.180Z,1005.09
2023-01-02T02:47:46.143Z,1005.09
2023-01-02T02:48:46.885Z,1005.14
2023-01-02T02:49:46.131Z,1005.17
2023-01-02T02:50:46.109Z,1005.25
2023-01-02T02:51:46.118Z,1005.13
2023-01-02T02:52:46.120Z,1005.13
2023-01-02T02:53:46.083Z,1005.05
2023-01-02T02:54:46.102Z,1005.17
2023-01-02T02:55:46.053Z,1005.21
2023-01-02T02:56:46.067Z,1005.18
2023-01-02T02:57:46.060Z,1005.19
2023-01-02T02:58:46.019Z,1005.20
2023-01-02T02:59:45.998Z,1005.18
2023-01-02T03:00:46.129Z,1005.24
2023-01-02T03:01:46.121Z,1005.21
2023-01-02T03:02:46.136Z,1005.14
2023-01-02T03:03:45.951Z,1005.10
2023-01-02T03:04:45.955Z,1005.14
2023-01-02T03:05:45.951Z,1005.18
2023-01-02T03:06:45.952Z,1005.23
2023-01-02T03:07:45.927Z,1005.22
2023-01-02T03:08:45.933Z,1005.15
2023-01-02T03:09:45.897Z,1005.17
2023-01-02T03:10:45.878Z,1005.17
2023-01-02T03:11:45.872Z,1005.20
2023-01-02T03:12:45.862Z,1005.10
2023-01-02T03:13:45.989Z,1005.09
2023-01-02T03:14:45.850Z,1005.05
2023-01-02T03:15:45.826Z,1004.98
2023-01-02T03:16:45.908Z,1005.14
2023-01-02T03:17:45.805Z,1005.12
2023-01-02T03:18:45.808Z,1005.14
2023-01-02T03:19:45.781Z,1005.19
2023-01-02T03:20:45.782Z,1005.20
2023-01-02T03:21:45.771Z,1005.15
2023-01-02T03:22:45.759Z,1005.13
2023-01-02T03:23:45.739Z,1005.10
2023-01-02T03:24:45.716Z,1005.18
2023-01-02T03:25:45.732Z,1005.20
2023-01-02T03:26:45.723Z,1005.31
2023-01-02T03:27:45.723Z,1005.34
2023-01-02T03:28:45.675Z,1005.32
2023-01-02T03:29:45.705Z,1005.18
2023-01-02T03:30:45.710Z,1005.12
2023-01-02T03:31:45.641Z,1005.11
2023-01-02T03:32:45.640Z,1005.13
2023-01-02T03:33:45.639Z,1005.25
2023-01-02T03:34:45.614Z,1005.19
2023-01-02T03:35:45.608Z,1005.18
2023-01-02T03:36:45.611Z,1005.14
2023-01-02T03:37:45.579Z,1005.15
2023-01-02T03:38:45.567Z,1005.25
2023-01-02T03:39:45.570Z,1005.26
2023-01-02T03:40:45.550Z,1005.27
2023-01-02T03:41:45.525Z,1005.27
2023-01-02T03:42:45.513Z,1005.28
2023-01-02T03:43:45.512Z,1005.33
2023-01-02T03:44:45.500Z,1005.34
2023-01-02T03:45:45.563Z,1005.42
2023-01-02T03:46:45.473Z,1005.46
2023-01-02T03:47:45.455Z,1005.39
2023-01-02T03:48:45.473Z,1005.38
2023-01-02T03:49:45.451Z,1005.38
2023-01-02T03:50:45.448Z,1005.39
2023-01-02T03:51:45.443Z,1005.31
2023-01-02T03:52:45.426Z,1005.37
2023-01-02T03:53:45.422Z,1005.37
2023-01-02T03:54:45.399Z,1005.45
2023-01-02T03:55:45.367Z,1005.38
2023-01-02T03:56:45.395Z,1005.41
2023-01-02T03:57:45.354Z,1005.38
2023-01-02T03:58:45.354Z,1005.35
2023-01-02T03:59:45.336Z,1005.39
2023-01-02T04:00:45.320Z,1005.43
2023-01-02T04:01:45.539Z,1005.42
2023-01-02T04:02:45.402Z,1005.39
2023-01-02T04:03:45.295Z,1005.40
2023-01-02T04:04:50.415Z,1005.29
2023-01-02T04:05:46.254Z,1005.32
2023-01-02T04:06:45.287Z,1005.38
2023-01-02T04:07:45.238Z,1005.41
2023-01-02T04:08:45.245Z,1005.41
2023-01-02T04:09:45.203Z,1005.41
2023-01-02T04:10:45.192Z,1005.45
2023-01-02T04:11:45.200Z,1005.39
2023-01-02T04:12:45.169Z,1005.35
2023-01-02T04:13:45.163Z,1005.37
2023-01-02T04:14:45.151Z,1005.25
2023-01-02T04:15:45.208Z,1005.17
2023-01-02T04:16:45.125Z,1005.23
2023-01-02T04:17:45.165Z,1005.34
2023-01-02T04:18:47.095Z,1005.35
2023-01-02T04:19:45.130Z,1005.26
2023-01-02T04:20:45.110Z,1005.31
2023-01-02T04:21:45.083Z,1005.34
2023-01-02T04:22:45.079Z,1005.36
2023-01-02T04:23:45.083Z,1005.40
2023-01-02T04:24:45.048Z,1005.42
2023-01-02T04:25:45.052Z,1005.37
2023-01-02T04:26:45.012Z,1005.35
2023-01-02T04:27:45.019Z,1005.36
2023-01-02T04:28:45.005Z,1005.34
2023-01-02T04:29:44.988Z,1005.32
2023-01-02T04:30:45.013Z,1005.39
2023-01-02T04:31:45.004Z,1005.43
2023-01-02T04:32:44.943Z,1005.41
2023-01-02T04:33:45.075Z,1005.41
2023-01-02T04:34:44.936Z,1005.36
2023-01-02T04:35:44.945Z,1005.41
2023-01-02T04:36:44.915Z,1005.48
2023-01-02T04:37:44.892Z,1005.44
2023-01-02T04:38:44.883Z,1005.50
2023-01-02T04:39:44.890Z,1005.45
2023-01-02T04:40:44.861Z,1005.41
2023-01-02T04:41:44.853Z,1005.51
2023-01-02T04:42:44.849Z,1005.47
2023-01-02T04:43:44.833Z,1005.52
2023-01-02T04:44:44.804Z,1005.54
2023-01-02T04:45:44.832Z,1005.52
2023-01-02T04:46:44.841Z,1005.49
2023-01-02T04:47:44.772Z,1005.53
2023-01-02T04:48:44.769Z,1005.52
2023-01-02T04:49:44.781Z,1005.58
2023-01-02T04:50:44.800Z,1005.59
2023-01-02T04:51:44.741Z,1005.56
2023-01-02T04:52:44.731Z,1005.60
2023-01-02T04:53:44.696Z,1005.57
2023-01-02T04:54:44.700Z,1005.58
2023-01-02T04:55:44.685Z,1005.51
2023-01-02T04:56:44.679Z,1005.50
2023-01-02T04:57:44.674Z,1005.55
2023-01-02T04:58:44.644Z,1005.62
2023-01-02T04:59:44.662Z,1005.73
2023-01-02T05:00:44.634Z,1005.69
2023-01-02T05:01:44.692Z,1005.73
2023-01-02T05:02:44.739Z,1005.73
2023-01-02T05:03:44.649Z,1005.78
2023-01-02T05:04:44.592Z,1005.67
2023-01-02T05:05:44.611Z,1005.72
2023-01-02T05:06:44.564Z,1005.76
2023-01-02T05:07:44.552Z,1005.78
2023-01-02T05:08:44.560Z,1005.81
2023-01-02T05:09:44.518Z,1005.83
2023-01-02T05:10:44.533Z,1005.80
2023-01-02T05:11:44.510Z,1005.80
2023-01-02T05:12:44.508Z,1005.76
2023-01-02T05:13:44.502Z,1005.81
2023-01-02T05:14:44.471Z,1005.82
2023-01-02T05:15:44.551Z,1005.85
2023-01-02T05:16:44.484Z,1005.80
2023-01-02T05:17:44.451Z,1005.82
2023-01-02T05:18:44.424Z,1005.83
2023-01-02T05:19:44.433Z,1005.80
2023-01-02T05:20:44.405Z,1005.85
2023-01-02T05:21:44.430Z,1005.85
2023-01-02T05:22:44.394Z,1005.86
2023-01-02T05:23:44.372Z,1005.85
2023-01-02T05:24:44.353Z,1005.85
2023-01-02T05:25:44.368Z,1005.79
2023-01-02T05:26:44.338Z,1005.80
2023-01-02T05:27:44.308Z,1005.78
2023-01-02T05:28:44.335Z,1005.83
2023-01-02T05:29:44.307Z,1005.83
2023-01-02T05:30:44.292Z,1005.86
2023-01-02T05:31:44.321Z,1005.86
2023-01-02T05:32:44.269Z,1005.91
2023-01-02T05:33:44.254Z,1005.95
2023-01-02T05:34:44.257Z,1005.93
2023-01-02T05:35:44.244Z,1005.99
2023-01-02T05:36:44.226Z,1005.96
2023-01-02T05:37:44.221Z,1006.01
2023-01-02T05:38:44.187Z,1005.97
2023-01-02T05:39:44.192Z,1006.00
2023-01-02T05:40:44.179Z,1005.98
2023-01-02T05:41:44.173Z,1005.96
2023-01-02T05:42:44.150Z,1005.94
2023-01-02T05:43:44.181Z,1005.95
2023-01-02T05:44:44.168Z,1005.91
2023-01-02T05:45:44.121Z,1005.90
2023-01-02T05:46:44.240Z,1005.91
2023-01-02T05:47:44.087Z,1005.97
2023-01-02T05:48:44.125Z,1006.02
2023-01-02T05:49:44.062Z,1006.06
2023-01-02T05:50:44.075Z,1006.00
2023-01-02T05:51:44.063Z,1005.94
2023-01-02T05:52:46.085Z,1005.94
2023-01-02T05:53:44.074Z,1006.02
2023-01-02T05:54:44.007Z,1006.03
2023-01-02T05:55:44.020Z,1005.98
2023-01-02T05:56:44.012Z,1006.00
2023-01-02T05:57:43.966Z,1006.07
2023-01-02T05:58:43.980Z,1006.01
2023-01-02T05:59:43.958Z,1006.05
2023-01-02T06:00:43.960Z,1006.07
2023-01-02T06:01:44.060Z,1006.10
2023-01-02T06:02:47.986Z,1006.18
2023-01-02T06:03:43.961Z,1006.21
2023-01-02T06:04:43.907Z,1006.20
2023-01-02T06:05:43.945Z,1006.26
2023-01-02T06:06:43.879Z,1006.33
2023-01-02T06:07:43.912Z,1006.29
2023-01-02T06:08:43.887Z,1006.30
2023-01-02T06:09:43.891Z,1006.29
2023-01-02T06:10:43.842Z,1006.24
2023-01-02T06:11:43.833Z,1006.25
2023-01-02T06:12:43.869Z,1006.14
2023-01-02T06:13:43.820Z,1006.16
2023-01-02T06:14:43.787Z,1006.17
2023-01-02T06:15:43.767Z,1006.14
2023-01-02T06:16:43.833Z,1006.14
2023-01-02T06:17:43.754Z,1006.09
2023-01-02T06:18:43.763Z,1006.08
2023-01-02T06:19:47.301Z,1006.01
2023-01-02T06:20:44.727Z,1006.00
2023-01-02T06:21:43.712Z,1005.97
2023-01-02T06:22:43.731Z,1006.03
2023-01-02T06:23:43.705Z,1006.09
2023-01-02T06:24:43.667Z,1006.23
2023-01-02T06:25:43.672Z,1006.22
2023-01-02T06:26:43.661Z,1006.19
2023-01-02T06:27:43.666Z,1006.24
2023-01-02T06:28:43.661Z,1006.32
2023-01-02T06:29:43.629Z,1006.34
2023-01-02T06:30:43.611Z,1006.30
2023-01-02T06:31:47.771Z,1006.33
2023-01-02T06:32:44.598Z,1006.33
2023-01-02T06:33:43.583Z,1006.34
2023-01-02T06:34:43.573Z,1006.29
2023-01-02T06:35:43.542Z,1006.32
2023-01-02T06:36:43.523Z,1006.32
2023-01-02T06:37:43.559Z,1006.28
2023-01-02T06:38:43.545Z,1006.30
2023-01-02T06:39:43.496Z,1006.30
2023-01-02T06:40:43.508Z,1006.26
2023-01-02T06:41:43.609Z,1006.28
2023-01-02T06:42:43.498Z,1006.28
2023-01-02T06:43:43.482Z,1006.28
2023-01-02T06:44:43.518Z,1006.30
2023-01-02T06:45:43.432Z,1006.31
2023-01-02T06:46:43.425Z,1006.27
2023-01-02T06:47:43.443Z,1006.33
2023-01-02T06:48:43.417Z,1006.33
2023-01-02T06:49:43.424Z,1006.35
2023-01-02T06:50:43.366Z,1006.38
2023-01-02T06:51:43.361Z,1006.39
2023-01-02T06:52:43.387Z,1006.36
2023-01-02T06:53:43.367Z,1006.30
2023-01-02T06:54:43.330Z,1006.23
2023-01-02T06:55:43.327Z,1006.22
2023-01-02T06:56:43.292Z,1006.32
2023-01-02T06:57:43.334Z,1006.30
2023-01-02T06:58:43.305Z,1006.30
2023-01-02T06:59:43.268Z,1006.29
2023-01-02T07:00:43.352Z,1006.31
2023-01-02T07:01:43.465Z,1006.38
2023-01-02T07:02:43.471Z,1006.40
2023-01-02T07:03:43.228Z,1006.47
2023-01-02T07:04:43.211Z,1006.46
2023-01-02T07:05:43.191Z,1006.54
2023-01-02T07:06:43.208Z,1006.52
2023-01-02T07:07:43.203Z,1006.57
2023-01-02T07:08:43.233Z,1006.51
2023-01-02T07:09:43.149Z,1006.51
2023-01-02T07:10:46.645Z,1006.53
2023-01-02T07:11:44.124Z,1006.52
2023-01-02T07:12:43.147Z,1006.52
2023-01-02T07:13:43.223Z,1006.58
2023-01-02T07:14:43.106Z,1006.59
2023-01-02T07:15:43.076Z,1006.51
2023-01-02T07:16:43.112Z,1006.51
2023-01-02T07:17:43.091Z,1006.61
2023-01-02T07:18:43.062Z,1006.61
2023-01-02T07:19:46.999Z,1006.51
2023-01-02T07:20:44.026Z,1006.49
2023-01-02T07:21:43.045Z,1006.55
2023-01-02T07:22:43.019Z,1006.54
2023-01-02T07:23:43.025Z,1006.53
2023-01-02T07:24:43.038Z,1006.41
2023-01-02T07:25:44.687Z,1006.51
2023-01-02T07:26:42.974Z,1006.59
2023-01-02T07:27:42.959Z,1006.59
2023-01-02T07:28:42.950Z,1006.56
2023-01-02T07:29:43.001Z,1006.53
2023-01-02T07:30:42.944Z,1006.46
2023-01-02T07:31:42.946Z,1006.49
2023-01-02T07:32:42.898Z,1006.54
2023-01-02T07:33:42.878Z,1006.53
2023-01-02T07:34:42.865Z,1006.59
2023-01-02T07:35:42.887Z,1006.57
2023-01-02T07:36:42.853Z,1006.61
2023-01-02T07:37:42.846Z,1006.65
2023-01-02T07:38:42.840Z,1006.70
2023-01-02T07:39:42.815Z,1006.72
2023-01-02T07:40:42.788Z,1006.72
2023-01-02T07:41:42.805Z,1006.69
2023-01-02T07:42:42.804Z,1006.69
2023-01-02T07:43:42.751Z,1006.76
2023-01-02T07:44:42.756Z,1006.72
2023-01-02T07:45:49.503Z,1006.65
2023-01-02T07:46:43.772Z,1006.61
2023-01-02T07:47:42.740Z,1006.58
2023-01-02T07:48:42.698Z,1006.63
2023-01-02T07:49:42.688Z,1006.72
2023-01-02T07:50:42.699Z,1006.68
2023-01-02T07:51:42.721Z,1006.71
2023-01-02T07:52:42.657Z,1006.72
2023-01-02T07:53:42.657Z,1006.71
2023-01-02T07:54:42.652Z,1006.73
2023-01-02T07:55:42.648Z,1006.76
2023-01-02T07:56:42.640Z,1006.74
2023-01-02T07:57:42.602Z,1006.75
2023-01-02T07:58:42.592Z,1006.75
2023-01-02T07:59:42.605Z,1006.80
2023-01-02T08:00:42.588Z,1006.77
2023-01-02T08:01:42.716Z,1006.78
2023-01-02T08:02:42.738Z,1006.75
2023-01-02T08:03:42.626Z,1006.84
2023-01-02T08:04:42.516Z,1006.85
2023-01-02T08:05:42.524Z,1006.90
2023-01-02T08:06:42.513Z,1006.91
2023-01-02T08:07:44.976Z,1006.89
2023-01-02T08:08:42.546Z,1006.94
2023-01-02T08:09:42.454Z,1006.86
2023-01-02T08:10:42.466Z,1007.01
2023-01-02T08:11:42.456Z,1007.00
2023-01-02T08:12:42.427Z,1007.10
2023-01-02T08:13:42.440Z,1007.09
2023-01-02T08:14:42.442Z,1007.05
2023-01-02T08:15:42.434Z,1007.09
2023-01-02T08:16:42.427Z,1007.13
2023-01-02T08:17:42.400Z,1007.06
2023-01-02T08:18:42.361Z,1007.08
2023-01-02T08:19:42.373Z,1007.02
2023-01-02T08:20:42.380Z,1007.09
2023-01-02T08:21:42.342Z,1007.11
2023-01-02T08:22:42.324Z,1007.13
2023-01-02T08:23:42.356Z,1007.12
2023-01-02T08:24:42.317Z,1007.18
2023-01-02T08:25:42.321Z,1007.16
2023-01-02T08:26:42.274Z,1007.29
2023-01-02T08:27:42.257Z,1007.15
2023-01-02T08:28:42.243Z,1007.26
2023-01-02T08:29:42.255Z,1007.30
2023-01-02T08:30:42.270Z,1007.34
2023-01-02T08:31:44.066Z,1007.36
2023-01-02T08:32:42.220Z,1007.33
2023-01-02T08:33:42.266Z,1007.41
2023-01-02T08:34:42.197Z,1007.36
2023-01-02T08:35:42.199Z,1007.35
2023-01-02T08:36:42.195Z,1007.41
2023-01-02T08:37:46.749Z,1007.39
2023-01-02T08:38:43.172Z,1007.42
2023-01-02T08:39:42.136Z,1007.45
2023-01-02T08:40:42.119Z,1007.38
2023-01-02T08:41:42.114Z,1007.42
2023-01-02T08:42:42.092Z,1007.52
2023-01-02T08:43:42.095Z,1007.56
2023-01-02T08:44:42.100Z,1007.56
2023-01-02T08:45:42.143Z,1007.59
2023-01-02T08:46:43.187Z,1007.66
2023-01-02T08:47:42.069Z,1007.67
2023-01-02T08:48:42.038Z,1007.59
2023-01-02T08:49:42.043Z,1007.70
2023-01-02T08:50:42.029Z,1007.70
2023-01-02T08:51:42.003Z,1007.70
2023-01-02T08:52:41.969Z,1007.67
2023-01-02T08:53:41.971Z,1007.69
2023-01-02T08:54:41.968Z,1007.65
2023-01-02T08:55:41.960Z,1007.66
2023-01-02T08:56:41.970Z,1007.62
2023-01-02T08:57:41.920Z,1007.69
2023-01-02T08:58:41.915Z,1007.68
2023-01-02T08:59:41.916Z,1007.56
2023-01-02T09:00:41.875Z,1007.75
2023-01-02T09:01:41.993Z,1007.76
2023-01-02T09:02:42.104Z,1007.77
2023-01-02T09:03:41.916Z,1007.81
2023-01-02T09:04:41.834Z,1007.77
2023-01-02T09:05:41.836Z,1007.85
2023-01-02T09:06:41.817Z,1007.88
2023-01-02T09:07:41.820Z,1007.87
2023-01-02T09:08:41.826Z,1007.78
2023-01-02T09:09:41.791Z,1007.89
2023-01-02T09:10:41.788Z,1007.88
2023-01-02T09:11:41.762Z,1007.89
2023-01-02T09:12:41.795Z,1007.98
2023-01-02T09:13:41.760Z,1008.00
2023-01-02T09:14:41.720Z,1008.02
2023-01-02T09:15:41.787Z,1008.01
2023-01-02T09:16:41.727Z,1008.00
2023-01-02T09:17:41.712Z,1008.06
2023-01-02T09:18:41.705Z,1008.05
2023-01-02T09:19:41.686Z,1008.14
2023-01-02T09:20:41.658Z,1008.17
2023-01-02T09:21:41.697Z,1008.25
2023-01-02T09:22:41.670Z,1008.22
2023-01-02T09:23:41.648Z,1008.21
2023-01-02T09:24:41.616Z,1008.22
2023-01-02T09:25:41.606Z,1008.31
2023-01-02T09:26:41.763Z,1008.33
2023-01-02T09:27:41.582Z,1008.33
2023-01-02T09:28:42.063Z,1008.32
2023-01-02T09:29:41.544Z,1008.37
2023-01-02T09:30:41.587Z,1008.39
2023-01-02T09:31:41.558Z,1008.44
2023-01-02T09:32:41.545Z,1008.46
2023-01-02T09:33:41.529Z,1008.45
2023-01-02T09:34:41.524Z,1008.54
2023-01-02T09:35:41.484Z,1008.51
2023-01-02T09:36:41.517Z,1008.62
2023-01-02T09:37:41.490Z,1008.67
2023-01-02T09:38:41.470Z,1008.59
2023-01-02T09:39:41.494Z,1008.62
2023-01-02T09:40:41.460Z,1008.73
2023-01-02T09:41:41.436Z,1008.74
2023-01-02T09:42:41.409Z,1008.81
2023-01-02T09:43:41.405Z,1008.80
2023-01-02T09:44:41.399Z,1008.84
2023-01-02T09:45:41.390Z,1008.86
2023-01-02T09:46:41.496Z,1008.88
2023-01-02T09:47:41.381Z,1008.87
2023-01-02T09:48:41.340Z,1008.93
2023-01-02T09:49:41.370Z,1008.94
2023-01-02T09:50:41.338Z,1008.95
2023-01-02T09:51:41.327Z,1008.96
2023-01-02T09:52:41.321Z,1009.00
2023-01-02T09:53:41.410Z,1009.00
2023-01-02T09:54:41.309Z,1008.96
2023-01-02T09:55:41.275Z,1009.14
2023-01-02T09:56:41.263Z,1009.11
2023-01-02T09:57:41.268Z,1009.04
2023-01-02T09:58:41.241Z,1009.08
2023-01-02T09:59:41.246Z,1009.10
2023-01-02T10:00:41.232Z,1009.07
2023-01-02T10:01:41.261Z,1009.05
2023-01-02T10:02:41.222Z,1009.03
2023-01-02T10:03:41.294Z,1009.15
2023-01-02T10:04:41.184Z,1009.16
2023-01-02T10:05:41.223Z,1009.11
2023-01-02T10:06:41.178Z,1009.32
2023-01-02T10:07:41.108Z,1009.21
2023-01-02T10:08:41.117Z,1009.21
2023-01-02T10:09:41.209Z,1009.24
2023-01-02T10:10:41.115Z,1009.25
2023-01-02T10:11:41.501Z,1009.28
2023-01-02T10:12:41.062Z,1009.30
2023-01-02T10:14:44.555Z,1009.32
2023-01-02T10:15:41.108Z,1009.30
2023-01-02T10:16:41.016Z,1009.34
2023-01-02T10:17:41.046Z,1009.28
2023-01-02T10:18:41.030Z,1009.24
2023-01-02T10:19:41.012Z,1009.27
2023-01-02T10:20:40.981Z,1009.22
2023-01-02T10:21:40.984Z,1009.26
2023-01-02T10:22:40.948Z,1009.26
2023-01-02T10:23:40.951Z,1009.26
2023-01-02T10:24:40.956Z,1009.23
2023-01-02T10:25:41.070Z,1009.23
2023-01-02T10:26:40.911Z,1009.26
2023-01-02T10:27:40.910Z,1009.24
2023-01-02T10:28:40.912Z,1009.21
2023-01-02T10:29:40.896Z,1009.20
2023-01-02T10:30:40.876Z,1009.18
2023-01-02T10:31:40.917Z,1009.19
2023-01-02T10:32:40.886Z,1009.14
2023-01-02T10:33:40.847Z,1009.16
2023-01-02T10:34:40.899Z,1009.14
2023-01-02T10:35:40.848Z,1009.15
2023-01-02T10:36:40.808Z,1009.16
2023-01-02T10:37:40.789Z,1009.16
2023-01-02T10:38:40.786Z,1009.20
2023-01-02T10:39:40.766Z,1009.24
2023-01-02T10:40:40.741Z,1009.21
2023-01-02T10:41:40.766Z,1009.23
2023-01-02T10:42:40.788Z,1009.26
2023-01-02T10:43:40.739Z,1009.25
2023-01-02T10:44:40.729Z,1009.23
2023-01-02T10:45:40.729Z,1009.24
2023-01-02T10:46:40.728Z,1009.18
2023-01-02T10:47:40.690Z,1009.24
2023-01-02T10:48:40.703Z,1009.28
2023-01-02T10:49:40.667Z,1009.30
2023-01-02T10:50:40.647Z,1009.33
2023-01-02T10:51:40.631Z,1009.39
2023-01-02T10:52:40.674Z,1009.35
2023-01-02T10:53:40.601Z,1009.34
2023-01-02T10:54:47.334Z,1009.38
2023-01-02T10:55:41.623Z,1009.38
2023-01-02T10:56:40.593Z,1009.36
2023-01-02T10:57:40.606Z,1009.36
2023-01-02T10:58:40.553Z,1009.35
2023-01-02T10:59:40.552Z,1009.37
2023-01-02T11:00:40.591Z,1009.36
2023-01-02T11:01:40.665Z,1009.33
2023-01-02T11:02:40.655Z,1009.32
2023-01-02T11:03:40.523Z,1009.35
2023-01-02T11:04:40.487Z,1009.34
2023-01-02T11:05:40.466Z,1009.34
2023-01-02T11:06:40.517Z,1009.30
2023-01-02T11:07:40.468Z,1009.30
2023-01-02T11:08:40.463Z,1009.31
2023-01-02T11:09:40.409Z,1009.32
2023-01-02T11:10:40.396Z,1009.32
2023-01-02T11:11:40.397Z,1009.33
2023-01-02T11:12:40.399Z,1009.25
2023-01-02T11:13:40.414Z,1009.21
2023-01-02T11:14:40.414Z,1009.24
2023-01-02T11:15:40.371Z,1009.21
2023-01-02T11:16:40.380Z,1009.28
2023-01-02T11:17:40.340Z,1009.27
2023-01-02T11:18:40.328Z,1009.23
2023-01-02T11:19:40.301Z,1009.20
2023-01-02T11:20:40.315Z,1009.14
2023-01-02T11:21:40.316Z,1009.22
2023-01-02T11:22:40.292Z,1009.25
2023-01-02T11:23:40.317Z,1009.20
2023-01-02T11:24:40.255Z,1009.26
2023-01-02T11:25:40.289Z,1009.24
2023-01-02T11:26:40.238Z,1009.24
2023-01-02T11:27:40.226Z,1009.19
2023-01-02T11:28:40.214Z,1009.19
2023-01-02T11:29:40.222Z,1009.17
2023-01-02T11:30:40.181Z,1009.17
2023-01-02T11:31:40.242Z,1009.19
2023-01-02T11:32:40.200Z,1009.19
2023-01-02T11:33:40.178Z,1009.19
2023-01-02T11:34:40.133Z,1009.22
2023-01-02T11:35:40.128Z,1009.16
2023-01-02T11:36:40.152Z,1009.13
2023-01-02T11:37:40.131Z,1009.10
2023-01-02T11:38:40.512Z,1009.15
2023-01-02T11:39:40.093Z,1009.20
2023-01-02T11:40:40.100Z,1009.23
2023-01-02T11:41:40.077Z,1009.20
2023-01-02T11:42:40.067Z,1009.25
2023-01-02T11:43:40.036Z,1009.20
2023-01-02T11:44:40.013Z,1009.27
2023-01-02T11:45:40.064Z,1009.29
2023-01-02T11:46:40.018Z,1009.30
2023-01-02T11:47:40.015Z,1009.32
2023-01-02T11:48:39.968Z,1009.31
2023-01-02T11:49:39.984Z,1009.35
2023-01-02T11:50:39.974Z,1009.30
2023-01-02T11:51:40.012Z,1009.29
2023-01-02T11:52:39.948Z,1009.28
2023-01-02T11:53:39.934Z,1009.22
2023-01-02T11:54:39.953Z,1009.16
2023-01-02T11:55:39.928Z,1009.13
2023-01-02T11:56:39.904Z,1009.13
2023-01-02T11:57:39.864Z,1009.14
2023-01-02T11:58:39.867Z,1009.13
2023-01-02T11:59:39.938Z,1009.17
2023-01-02T12:00:39.877Z,1009.17
2023-01-02T12:01:39.992Z,1009.22
2023-01-02T12:02:39.886Z,1009.30
2023-01-02T12:03:39.883Z,1009.27
2023-01-02T12:04:39.783Z,1009.26
2023-01-02T12:05:39.817Z,1009.29
2023-01-02T12:06:39.797Z,1009.31